City Of Cleveland — WDC2358 — position and weather

sailwx.info

Track history (hours):
 
Tides and Currents Weather Stations Pressure Air Temp Water Temp Dewpoint Dewpoint Depression Visibility Wind Speed Wind Dir Waves Ship Positions

City Of Cleveland

Owner: JANTRAN, INC., ROSEDALE, MS. More information available from US FCC via Universal Licensing System and Coast Guard Vessel Documentation Center.

Last reported at 2017-Nov-18 09:25 UTC. Time now 2017-Nov-19 14:25 UTC.
Position N 31°41' W 091°24'.

Length 42 m; draft 12.5 m.

Type: Towing. MMSI: 366991810.

Date/timePositionNaut miles runAvg speedWind from/ knotsBaromVisibWave heightAir tempDewpointWater temp
2017-Nov-18 09:25N 31°41' W 091°24'7 7.6
2017-Nov-18 08:32N 31°48' W 091°22'1 6.7
2017-Nov-18 08:24N 31°48' W 091°22'16 6.7
2017-Nov-18 05:59N 31°59' W 091°07'6 6.7
2017-Nov-18 05:04N 32°05' W 091°04'1 7.9
2017-Nov-18 05:00N 32°05' W 091°05'3 5.6
2017-Nov-18 04:31N 32°08' W 091°06'3 5.7
2017-Nov-18 04:00N 32°07' W 091°03'3 6.3
2017-Nov-18 03:30N 32°09' W 091°00'4 7.6
2017-Nov-18 03:00N 32°13' W 090°59'4 7.0
2017-Nov-18 02:30N 32°16' W 090°57'4 7.6
2017-Nov-18 02:00N 32°19' W 090°54'2 3.2
2017-Nov-18 01:30N 32°20' W 090°55'2 3.1
2017-Nov-18 01:00N 32°21' W 090°56'1 2.0
2017-Nov-18 00:30N 32°21' W 090°58'0 0.1
2017-Nov-18 00:01N 32°21' W 090°58'0 0.0
2017-Nov-17 23:30N 32°21' W 090°58'0 0.0
2017-Nov-17 23:01N 32°21' W 090°58'0 0.0
2017-Nov-17 22:30N 32°21' W 090°58'0 0.0
2017-Nov-17 22:00N 32°21' W 090°58'0 0.0
2017-Nov-17 21:30N 32°21' W 090°58'0 0.0
2017-Nov-17 21:00N 32°21' W 090°58'0 0.0
2017-Nov-17 20:31N 32°21' W 090°58'0 0.0
2017-Nov-17 20:00N 32°21' W 090°58'0 0.0
2017-Nov-17 19:31N 32°21' W 090°58'0 0.0
2017-Nov-17 19:01N 32°21' W 090°58'0 0.0
2017-Nov-17 18:30N 32°21' W 090°58'0 0.0
2017-Nov-17 18:00N 32°21' W 090°58'0 0.0
2017-Nov-17 17:31N 32°21' W 090°58'0 0.0
2017-Nov-17 17:00N 32°21' W 090°58'0 0.0
2017-Nov-17 16:30N 32°21' W 090°58'2 3.9
2017-Nov-17 16:00N 32°21' W 090°60'4 7.5
2017-Nov-17 15:30N 32°25' W 090°60'4 7.6
2017-Nov-17 15:00N 32°26' W 091°04'4 7.4
2017-Nov-17 14:30N 32°29' W 091°07'4 7.8
2017-Nov-17 14:01N 32°33' W 091°06'4 7.8
2017-Nov-17 13:30N 32°36' W 091°09'4 7.7
2017-Nov-17 13:00N 32°40' W 091°08'5 3.1
2017-Nov-17 11:27N 32°45' W 091°09'  
2017-Nov-13 02:00N 32°30' W 091°07'1 2.6
2017-Nov-13 01:30N 32°29' W 091°07'0 0.0
2017-Nov-13 01:00N 32°29' W 091°07'0 0.0
2017-Nov-13 00:30N 32°29' W 091°07'0 0.0
2017-Nov-13 00:00N 32°29' W 091°07'1 1.4
2017-Nov-12 23:30N 32°28' W 091°06'2 3.8
2017-Nov-12 23:00N 32°27' W 091°05'2 3.9
2017-Nov-12 22:30N 32°26' W 091°02'2 3.9
2017-Nov-12 22:00N 32°25' W 091°00'2 3.0
2017-Nov-12 21:30N 32°24' W 090°59'2 3.4
2017-Nov-12 21:00N 32°22' W 091°00'0 0.9
2017-Nov-12 20:31N 32°22' W 091°00'1 1.5
2017-Nov-12 20:01N 32°21' W 090°60'2 3.7
2017-Nov-12 19:30N 32°21' W 090°58'0 0.6
2017-Nov-12 19:00N 32°21' W 090°57'0 0.2
2017-Nov-12 18:30N 32°21' W 090°57'1 1.5
2017-Nov-12 18:01N 32°21' W 090°56'2 3.6
2017-Nov-12 17:31N 32°20' W 090°54'2 3.3
2017-Nov-12 17:01N 32°19' W 090°54'1 1.6
2017-Nov-12 16:30N 32°18' W 090°55'0 0.0
2017-Nov-12 16:01N 32°18' W 090°55'0 0.1
2017-Nov-12 15:30N 32°18' W 090°55'1 1.5
2017-Nov-12 15:00N 32°18' W 090°56'1 2.9
2017-Nov-12 14:30N 32°17' W 090°57'2 3.7
2017-Nov-12 14:00N 32°15' W 090°58'1 2.5
2017-Nov-12 13:30N 32°14' W 090°59'0 0.1
2017-Nov-12 13:00N 32°14' W 090°59'2 3.3
2017-Nov-12 12:30N 32°13' W 090°59'2 3.7
2017-Nov-12 12:00N 32°11' W 090°60'2 3.7
2017-Nov-12 11:30N 32°09' W 091°00'2 3.3
2017-Nov-12 11:00N 32°07' W 091°01'2 3.2
2017-Nov-12 10:30N 32°07' W 091°03'2 3.5
2017-Nov-12 10:00N 32°08' W 091°05'2 3.5
2017-Nov-12 09:30N 32°07' W 091°07'4 3.9
2017-Nov-12 08:34N 32°05' W 091°04'1 3.7
2017-Nov-12 08:26N 32°04' W 091°04'1 3.2
2017-Nov-12 08:00N 32°03' W 091°04'2 4.7
2017-Nov-12 07:30N 32°01' W 091°05'2 4.0
2017-Nov-12 07:00N 31°59' W 091°06'  
Track history (hours):
 
Tides and Currents Weather Stations Pressure Air Temp Water Temp Dewpoint Dewpoint Depression Visibility Wind Speed Wind Dir Waves Ship Positions

City Of Cleveland

Owner: JANTRAN, INC., ROSEDALE, MS. More information available from US FCC via Universal Licensing System and Coast Guard Vessel Documentation Center.

Last reported at 2017-Nov-18 09:25 UTC. Time now 2017-Nov-19 14:25 UTC.
Position N 31°41' W 091°24'.

Length 42 m; draft 12.5 m.

Type: Towing. MMSI: 366991810.

Date/timePositionNaut miles runAvg speedWind from/ knotsBaromVisibWave heightAir tempDewpointWater temp
2017-Nov-18 09:25N 31°41' W 091°24'7 7.6
2017-Nov-18 08:32N 31°48' W 091°22'1 6.7
2017-Nov-18 08:24N 31°48' W 091°22'16 6.7
2017-Nov-18 05:59N 31°59' W 091°07'6 6.7
2017-Nov-18 05:04N 32°05' W 091°04'1 7.9
2017-Nov-18 05:00N 32°05' W 091°05'3 5.6
2017-Nov-18 04:31N 32°08' W 091°06'3 5.7
2017-Nov-18 04:00N 32°07' W 091°03'3 6.3
2017-Nov-18 03:30N 32°09' W 091°00'4 7.6
2017-Nov-18 03:00N 32°13' W 090°59'4 7.0
2017-Nov-18 02:30N 32°16' W 090°57'4 7.6
2017-Nov-18 02:00N 32°19' W 090°54'2 3.2
2017-Nov-18 01:30N 32°20' W 090°55'2 3.1
2017-Nov-18 01:00N 32°21' W 090°56'1 2.0
2017-Nov-18 00:30N 32°21' W 090°58'0 0.1
2017-Nov-18 00:01N 32°21' W 090°58'0 0.0
2017-Nov-17 23:30N 32°21' W 090°58'0 0.0
2017-Nov-17 23:01N 32°21' W 090°58'0 0.0
2017-Nov-17 22:30N 32°21' W 090°58'0 0.0
2017-Nov-17 22:00N 32°21' W 090°58'0 0.0
2017-Nov-17 21:30N 32°21' W 090°58'0 0.0
2017-Nov-17 21:00N 32°21' W 090°58'0 0.0
2017-Nov-17 20:31N 32°21' W 090°58'0 0.0
2017-Nov-17 20:00N 32°21' W 090°58'0 0.0
2017-Nov-17 19:31N 32°21' W 090°58'0 0.0
2017-Nov-17 19:01N 32°21' W 090°58'0 0.0
2017-Nov-17 18:30N 32°21' W 090°58'0 0.0
2017-Nov-17 18:00N 32°21' W 090°58'0 0.0
2017-Nov-17 17:31N 32°21' W 090°58'0 0.0
2017-Nov-17 17:00N 32°21' W 090°58'0 0.0
2017-Nov-17 16:30N 32°21' W 090°58'2 3.9
2017-Nov-17 16:00N 32°21' W 090°60'4 7.5
2017-Nov-17 15:30N 32°25' W 090°60'4 7.6
2017-Nov-17 15:00N 32°26' W 091°04'4 7.4
2017-Nov-17 14:30N 32°29' W 091°07'4 7.8
2017-Nov-17 14:01N 32°33' W 091°06'4 7.8
2017-Nov-17 13:30N 32°36' W 091°09'4 7.7
2017-Nov-17 13:00N 32°40' W 091°08'5 3.1
2017-Nov-17 11:27N 32°45' W 091°09'  
2017-Nov-13 02:00N 32°30' W 091°07'1 2.6
2017-Nov-13 01:30N 32°29' W 091°07'0 0.0
2017-Nov-13 01:00N 32°29' W 091°07'0 0.0
2017-Nov-13 00:30N 32°29' W 091°07'0 0.0
2017-Nov-13 00:00N 32°29' W 091°07'1 1.4
2017-Nov-12 23:30N 32°28' W 091°06'2 3.8
2017-Nov-12 23:00N 32°27' W 091°05'2 3.9
2017-Nov-12 22:30N 32°26' W 091°02'2 3.9
2017-Nov-12 22:00N 32°25' W 091°00'2 3.0
2017-Nov-12 21:30N 32°24' W 090°59'2 3.4
2017-Nov-12 21:00N 32°22' W 091°00'0 0.9
2017-Nov-12 20:31N 32°22' W 091°00'1 1.5
2017-Nov-12 20:01N 32°21' W 090°60'2 3.7
2017-Nov-12 19:30N 32°21' W 090°58'0 0.6
2017-Nov-12 19:00N 32°21' W 090°57'0 0.2
2017-Nov-12 18:30N 32°21' W 090°57'1 1.5
2017-Nov-12 18:01N 32°21' W 090°56'2 3.6
2017-Nov-12 17:31N 32°20' W 090°54'2 3.3
2017-Nov-12 17:01N 32°19' W 090°54'1 1.6
2017-Nov-12 16:30N 32°18' W 090°55'0 0.0
2017-Nov-12 16:01N 32°18' W 090°55'0 0.1
2017-Nov-12 15:30N 32°18' W 090°55'1 1.5
2017-Nov-12 15:00N 32°18' W 090°56'1 2.9
2017-Nov-12 14:30N 32°17' W 090°57'2 3.7
2017-Nov-12 14:00N 32°15' W 090°58'1 2.5
2017-Nov-12 13:30N 32°14' W 090°59'0 0.1
2017-Nov-12 13:00N 32°14' W 090°59'2 3.3
2017-Nov-12 12:30N 32°13' W 090°59'2 3.7
2017-Nov-12 12:00N 32°11' W 090°60'2 3.7
2017-Nov-12 11:30N 32°09' W 091°00'2 3.3
2017-Nov-12 11:00N 32°07' W 091°01'2 3.2
2017-Nov-12 10:30N 32°07' W 091°03'2 3.5
2017-Nov-12 10:00N 32°08' W 091°05'2 3.5
2017-Nov-12 09:30N 32°07' W 091°07'4 3.9
2017-Nov-12 08:34N 32°05' W 091°04'1 3.7
2017-Nov-12 08:26N 32°04' W 091°04'1 3.2
2017-Nov-12 08:00N 32°03' W 091°04'2 4.7
2017-Nov-12 07:30N 32°01' W 091°05'2 4.0
2017-Nov-12 07:00N 31°59' W 091°06'  

Dump ship's entire track history